Standard, Illinois
Current Conditions -  °F | °C
As of 8:15 PM on Saturday 22 Nov 2014 (Local Time) from KVYS Reporting Station
Overcast Overcast  
Wind Chill: 53°   Ceiling: 2300
Heat Index: 53°   Visibility: 10mi
Dew Point: 46°   Wind: 14mph
Humidity: 77%   Direction: 190°S
Pressure: 29.85"   Gusts: NA
Location:  41.26°N, 89.18°W
Report Text: KVYS 230215Z AUTO 19012KT 10SM OVC023 12/08 A2985 RMK AO2 T01150076
Loading
Personal Weather Stations






























Interactive Weather Map New forecast layout! Learn more

10-Day Weather Forecast

Advertisements
Track Severe Weather on mobile